Time;durP1;ratioP1;P1;durP2;ratioP2;P2;SDS_P1;SDS_P2;PMS_P1;PMS_P2;Temp;Humidity;BMP_temperature;BMP_pressure;BME280_temperature;BME280_humidity;BME280_pressure;Samples;Min_cycle;Max_cycle;Signal;HPM_P1;HPM_P2
2021/07/15 00:00:46;;;;;;;1.92;1.30;;;23.20;37.50;;;;;;21167934;28;20044;-77
2021/07/15 00:11:09;;;;;;;5.38;1.60;;;23.20;37.50;;;;;;21166743;28;20050;-72
2021/07/15 00:21:13;;;;;;;3.00;1.50;;;23.10;37.60;;;;;;21166836;28;20129;-75
2021/07/15 00:31:15;;;;;;;2.83;1.60;;;22.90;38.20;;;;;;21166003;28;20052;-76
2021/07/15 00:41:18;;;;;;;2.55;1.30;;;22.60;38.80;;;;;;21166549;28;20056;-77
2021/07/15 00:51:21;;;;;;;3.90;1.63;;;22.20;39.90;;;;;;21166898;28;20519;-75
2021/07/15 01:01:24;;;;;;;3.47;1.92;;;21.90;40.60;;;;;;21163981;28;20058;-75
2021/07/15 01:11:38;;;;;;;3.15;1.42;;;21.80;40.80;;;;;;21163184;28;20102;-66
2021/07/15 01:22:24;;;;;;;4.05;1.70;;;21.60;41.30;;;;;;21162577;28;20089;-76
2021/07/15 01:32:31;;;;;;;3.47;1.65;;;21.60;41.70;;;;;;20833793;28;20085;-75
2021/07/15 01:42:59;;;;;;;3.65;1.85;;;21.30;42.30;;;;;;20864482;28;20049;-73
2021/07/15 01:53:06;;;;;;;2.60;1.58;;;21.20;42.70;;;;;;20837013;28;20383;-75
2021/07/15 02:03:14;;;;;;;2.50;1.50;;;20.90;43.30;;;;;;20970062;28;20502;-64
2021/07/15 02:13:23;;;;;;;2.72;1.60;;;20.70;43.80;;;;;;21182164;28;20138;-73
2021/07/15 02:23:28;;;;;;;3.85;1.70;;;20.60;44.00;;;;;;21175689;27;20138;-64
2021/07/15 02:33:32;;;;;;;4.10;1.55;;;20.50;44.20;;;;;;21177670;28;20047;-66
2021/07/15 02:43:35;;;;;;;3.40;1.55;;;20.40;44.60;;;;;;21173115;28;20051;-76
2021/07/15 02:53:41;;;;;;;2.70;1.60;;;20.30;44.90;;;;;;21209381;28;20047;-70
2021/07/15 03:04:06;;;;;;;3.42;1.83;;;20.10;45.20;;;;;;21188886;27;20058;-66
2021/07/15 03:14:09;;;;;;;2.28;1.58;;;20.20;44.90;;;;;;21169001;28;20093;-63
2021/07/15 03:24:15;;;;;;;3.42;2.03;;;20.10;45.30;;;;;;21166381;28;20400;-64
2021/07/15 03:34:19;;;;;;;2.88;1.73;;;20.00;45.20;;;;;;21166148;28;20069;-64
2021/07/15 03:44:25;;;;;;;4.53;1.98;;;19.90;45.50;;;;;;21164411;28;20051;-68
2021/07/15 03:54:29;;;;;;;2.10;1.33;;;19.90;45.60;;;;;;21165011;28;20055;-63
2021/07/15 04:04:36;;;;;;;3.92;1.98;;;20.00;45.30;;;;;;21167256;28;20079;-75
2021/07/15 04:15:03;;;;;;;2.67;1.98;;;20.10;45.30;;;;;;21165468;28;20109;-73
2021/07/15 04:25:10;;;;;;;4.93;1.75;;;20.20;45.30;;;;;;21165142;28;20509;-76
2021/07/15 04:35:15;;;;;;;3.45;1.70;;;20.20;45.30;;;;;;21164958;28;20055;-76
2021/07/15 04:45:23;;;;;;;3.42;1.65;;;20.10;45.40;;;;;;21165258;28;20116;-75
2021/07/15 04:55:26;;;;;;;4.18;1.80;;;20.20;45.40;;;;;;21164384;28;20043;-75
2021/07/15 05:05:28;;;;;;;3.10;2.08;;;20.20;45.40;;;;;;21172641;28;20055;-76
2021/07/15 05:15:30;;;;;;;3.97;1.90;;;20.20;45.40;;;;;;21178101;28;20044;-75
2021/07/15 05:25:32;;;;;;;4.15;1.50;;;20.10;45.30;;;;;;21176438;28;20055;-74
2021/07/15 05:35:34;;;;;;;2.45;1.40;;;20.20;45.00;;;;;;21193428;28;20058;-63
2021/07/15 05:45:36;;;;;;;3.67;1.93;;;20.20;44.30;;;;;;21214382;28;20055;-70
2021/07/15 05:55:40;;;;;;;7.43;3.28;;;20.20;44.40;;;;;;21189135;28;20043;-71
2021/07/15 06:05:41;;;;;;;4.75;1.70;;;20.20;44.60;;;;;;21177394;28;20139;-75
2021/07/15 06:15:44;;;;;;;3.00;1.50;;;20.20;45.00;;;;;;21177467;28;20124;-64
2021/07/15 06:25:47;;;;;;;3.33;1.75;;;20.00;45.60;;;;;;21174529;28;20107;-77
2021/07/15 06:35:51;;;;;;;3.38;1.80;;;19.90;45.90;;;;;;21181690;28;20141;-76
2021/07/15 06:45:53;;;;;;;3.63;1.48;;;20.20;45.50;;;;;;21189313;28;20052;-76
2021/07/15 06:55:55;;;;;;;2.93;1.70;;;20.40;45.10;;;;;;21173967;28;20048;-77
2021/07/15 07:05:57;;;;;;;6.00;1.90;;;20.70;44.60;;;;;;21173420;28;20379;-77
2021/07/15 07:16:00;;;;;;;2.93;1.80;;;21.20;43.70;;;;;;21173568;28;20475;-76
2021/07/15 07:26:01;;;;;;;6.32;1.60;;;21.80;42.50;;;;;;21189112;28;20064;-76
2021/07/15 07:36:03;;;;;;;6.28;2.35;;;22.50;41.20;;;;;;21172491;28;20089;-76
2021/07/15 07:46:05;;;;;;;5.63;1.77;;;23.10;40.20;;;;;;21167814;27;20052;-77
2021/07/15 07:56:08;;;;;;;3.25;1.80;;;23.50;39.40;;;;;;21167608;28;20075;-74
2021/07/15 08:06:10;;;;;;;4.13;1.70;;;23.60;39.60;;;;;;21166055;28;20043;-78
2021/07/15 08:16:13;;;;;;;2.10;1.40;;;23.90;39.20;;;;;;21165128;28;20043;-73
2021/07/15 08:26:15;;;;;;;4.05;1.90;;;24.40;38.50;;;;;;21164635;28;20066;-65
2021/07/15 08:36:19;;;;;;;3.70;1.85;;;24.60;38.20;;;;;;21168893;28;20082;-73
2021/07/15 08:46:23;;;;;;;5.97;2.50;;;25.10;37.60;;;;;;21186277;28;20051;-69
2021/07/15 08:56:36;;;;;;;4.93;1.73;;;25.40;37.10;;;;;;21183831;28;20537;-68
2021/07/15 09:06:42;;;;;;;2.70;1.67;;;25.60;36.60;;;;;;21180052;28;20047;-70
2021/07/15 09:16:51;;;;;;;4.18;1.60;;;25.80;36.30;;;;;;21178297;28;20135;-75
2021/07/15 09:26:53;;;;;;;3.30;1.65;;;26.10;35.80;;;;;;21177224;28;20460;-69
2021/07/15 09:36:56;;;;;;;4.38;1.40;;;26.40;35.30;;;;;;21177302;28;20096;-68
2021/07/15 09:46:58;;;;;;;5.15;1.77;;;26.70;34.90;;;;;;21174079;28;20480;-65
2021/07/15 09:57:00;;;;;;;7.97;1.83;;;26.90;34.70;;;;;;21172796;28;20043;-70
2021/07/15 10:07:02;;;;;;;6.35;1.75;;;27.10;34.30;;;;;;21175376;28;20063;-71
2021/07/15 10:17:08;;;;;;;4.82;1.60;;;27.10;34.40;;;;;;21174068;28;20101;-68
2021/07/15 10:27:10;;;;;;;3.13;1.50;;;27.30;34.20;;;;;;21172766;28;20410;-67
2021/07/15 10:37:13;;;;;;;6.15;1.70;;;27.10;34.50;;;;;;21173140;28;20508;-67
2021/07/15 10:47:17;;;;;;;6.45;2.15;;;27.10;34.80;;;;;;21175193;27;20048;-65
2021/07/15 10:57:21;;;;;;;4.95;1.73;;;27.10;34.70;;;;;;21171282;28;20052;-74
2021/07/15 11:07:24;;;;;;;2.60;1.58;;;27.10;34.80;;;;;;21169815;28;20540;-75
2021/07/15 11:17:30;;;;;;;3.55;1.55;;;27.60;34.00;;;;;;21168440;28;20507;-75
2021/07/15 11:27:36;;;;;;;6.45;2.17;;;27.60;34.30;;;;;;21166637;28;20138;-66
2021/07/15 11:37:38;;;;;;;2.47;1.65;;;27.60;34.10;;;;;;21165074;28;20051;-68
2021/07/15 11:47:51;;;;;;;4.65;1.63;;;27.80;33.40;;;;;;21164567;28;20060;-77
2021/07/15 11:57:53;;;;;;;5.22;1.73;;;28.00;33.50;;;;;;21169608;28;20108;-71
2021/07/15 12:08:15;;;;;;;4.90;1.88;;;28.10;32.40;;;;;;21171497;28;20043;-76
2021/07/15 12:18:19;;;;;;;11.27;2.60;;;28.20;31.20;;;;;;21165142;28;20056;-75
2021/07/15 12:28:25;;;;;;;2.38;1.88;;;28.20;31.70;;;;;;21164318;28;20055;-66
2021/07/15 12:38:32;;;;;;;4.55;1.50;;;28.50;31.20;;;;;;21163814;28;20426;-72
2021/07/15 12:48:45;;;;;;;3.85;1.58;;;28.60;30.20;;;;;;21163164;28;20048;-75
2021/07/15 12:59:09;;;;;;;3.65;1.67;;;28.70;28.90;;;;;;21162159;28;20074;-69
2021/07/15 13:19:36;;;;;;;2.03;1.17;;;29.00;27.00;;;;;;21163314;28;20106;-73
2021/07/15 13:29:38;;;;;;;2.95;1.00;;;29.10;24.50;;;;;;21175678;28;20412;-71
2021/07/15 13:39:47;;;;;;;3.83;1.20;;;29.20;22.20;;;;;;21176614;28;20503;-66
2021/07/15 13:49:55;;;;;;;4.53;1.45;;;29.30;23.10;;;;;;21176264;28;20152;-74
2021/07/15 13:59:56;;;;;;;3.35;1.73;;;29.50;21.10;;;;;;21175018;28;20051;-67
2021/07/15 14:10:15;;;;;;;2.47;1.30;;;29.60;21.20;;;;;;21172591;28;20085;-75
2021/07/15 14:20:17;;;;;;;4.03;1.10;;;29.90;20.90;;;;;;21174349;28;20403;-67
2021/07/15 14:30:25;;;;;;;8.60;1.60;;;29.80;20.30;;;;;;21174243;28;20115;-67
2021/07/15 14:40:28;;;;;;;8.07;1.88;;;30.00;20.10;;;;;;21172417;28;20058;-76
2021/07/15 14:50:29;;;;;;;3.10;1.05;;;30.20;20.30;;;;;;21171139;28;20051;-78
2021/07/15 15:00:31;;;;;;;2.58;1.50;;;30.30;19.50;;;;;;21171290;28;20051;-72
2021/07/15 15:10:33;;;;;;;2.92;1.45;;;30.50;19.30;;;;;;21185747;28;20040;-74
2021/07/15 15:20:35;;;;;;;2.65;1.42;;;30.60;19.60;;;;;;21178033;28;20055;-76
2021/07/15 15:30:37;;;;;;;4.18;1.45;;;30.60;19.70;;;;;;21168579;28;20047;-74
2021/07/15 15:40:40;;;;;;;3.20;1.10;;;30.60;19.70;;;;;;21170569;28;20460;-67
2021/07/15 15:50:41;;;;;;;4.05;1.55;;;30.50;19.90;;;;;;21206928;28;20052;-72
2021/07/15 16:00:44;;;;;;;2.95;1.30;;;30.50;20.30;;;;;;21167778;28;20131;-74
2021/07/15 16:10:48;;;;;;;2.30;1.33;;;30.60;20.40;;;;;;21171940;28;20348;-78
2021/07/15 16:20:51;;;;;;;3.80;1.73;;;30.60;20.40;;;;;;21169016;28;20179;-78
2021/07/15 16:30:52;;;;;;;3.80;1.30;;;30.70;21.00;;;;;;21169231;28;20126;-69
2021/07/15 16:40:54;;;;;;;2.72;1.45;;;30.80;21.00;;;;;;21170629;28;20044;-75
2021/07/15 16:50:57;;;;;;;4.57;2.35;;;30.70;21.30;;;;;;21168562;28;20176;-78
2021/07/15 17:01:00;;;;;;;3.45;1.50;;;30.80;21.60;;;;;;21178511;28;20043;-78
2021/07/15 17:11:02;;;;;;;2.90;2.20;;;30.90;21.50;;;;;;21195086;28;20127;-78
2021/07/15 17:21:03;;;;;;;2.28;1.38;;;30.90;21.10;;;;;;21180502;28;20051;-78
2021/07/15 17:31:07;;;;;;;2.58;1.50;;;30.70;21.20;;;;;;21181433;28;20043;-79
2021/07/15 17:41:10;;;;;;;2.40;1.30;;;30.80;21.30;;;;;;21179221;28;20083;-78
2021/07/15 17:51:14;;;;;;;4.15;1.83;;;30.90;21.10;;;;;;21176221;28;20047;-72
2021/07/15 18:01:17;;;;;;;5.95;4.32;;;30.80;21.60;;;;;;21176351;28;20047;-60
2021/07/15 18:11:20;;;;;;;4.85;1.50;;;30.70;21.70;;;;;;21173042;28;20449;-59
2021/07/15 18:21:24;;;;;;;3.45;1.65;;;30.60;21.70;;;;;;21170722;28;20146;-60
2021/07/15 18:31:26;;;;;;;2.30;1.38;;;30.60;21.90;;;;;;21171174;28;20400;-59
2021/07/15 18:41:27;;;;;;;4.65;3.55;;;30.60;21.60;;;;;;21170228;28;20054;-61
2021/07/15 18:51:29;;;;;;;2.53;2.03;;;30.50;21.90;;;;;;21170133;28;20448;-60
2021/07/15 19:01:31;;;;;;;3.22;1.70;;;30.50;21.80;;;;;;21168499;28;20083;-61
2021/07/15 19:11:36;;;;;;;3.08;1.63;;;30.40;22.20;;;;;;21166969;28;20132;-59
2021/07/15 19:21:41;;;;;;;3.30;1.98;;;30.30;22.10;;;;;;21165667;28;20397;-60
2021/07/15 19:31:43;;;;;;;7.60;2.28;;;30.20;22.40;;;;;;21165956;28;20123;-61
2021/07/15 19:41:44;;;;;;;6.47;3.65;;;30.00;22.80;;;;;;21167877;28;20073;-67
2021/07/15 19:51:47;;;;;;;7.72;3.30;;;29.70;23.10;;;;;;21175526;28;20131;-64
2021/07/15 20:01:49;;;;;;;7.07;3.08;;;29.60;23.30;;;;;;21178493;28;20442;-76
2021/07/15 20:11:51;;;;;;;9.52;5.20;;;29.20;23.90;;;;;;21172364;28;20065;-68
2021/07/15 20:21:53;;;;;;;12.07;7.80;;;29.00;24.20;;;;;;21225508;28;20197;-72
2021/07/15 20:31:54;;;;;;;10.43;6.30;;;28.90;24.60;;;;;;21222100;28;20043;-70
2021/07/15 20:41:56;;;;;;;11.43;6.88;;;28.70;25.30;;;;;;21164435;28;20048;-77
2021/07/15 20:51:58;;;;;;;12.23;7.97;;;28.60;25.80;;;;;;21165207;28;20044;-69
2021/07/15 21:02:00;;;;;;;10.57;5.88;;;28.40;26.40;;;;;;21164545;28;20403;-71
2021/07/15 21:12:04;;;;;;;12.98;7.50;;;28.30;26.50;;;;;;21167217;28;20048;-68
2021/07/15 21:22:05;;;;;;;12.02;6.65;;;28.20;26.90;;;;;;21166298;28;20055;-69
2021/07/15 21:32:08;;;;;;;13.27;7.97;;;28.10;27.40;;;;;;21163948;28;20052;-65
2021/07/15 21:42:10;;;;;;;14.30;7.88;;;27.90;27.90;;;;;;21189083;28;20112;-66
2021/07/15 21:52:12;;;;;;;16.42;8.13;;;27.70;28.60;;;;;;21180910;28;20177;-80
2021/07/15 22:02:14;;;;;;;8.30;5.50;;;27.50;29.80;;;;;;21178558;28;20468;-67
2021/07/15 22:12:16;;;;;;;8.85;3.85;;;27.30;29.60;;;;;;21177285;28;20403;-77
2021/07/15 22:22:18;;;;;;;8.77;3.50;;;27.10;29.80;;;;;;21175977;28;20147;-79
2021/07/15 22:32:20;;;;;;;7.00;3.95;;;26.70;30.30;;;;;;21173636;28;20062;-67
2021/07/15 22:42:21;;;;;;;6.50;2.70;;;26.40;31.10;;;;;;21176800;28;20453;-80
2021/07/15 22:52:23;;;;;;;7.63;2.90;;;26.20;31.00;;;;;;21176521;28;20104;-79
2021/07/15 23:02:27;;;;;;;10.25;3.38;;;25.90;31.00;;;;;;21188766;28;20094;-73
2021/07/15 23:12:28;;;;;;;10.38;6.63;;;25.60;31.20;;;;;;21179696;28;20039;-79
2021/07/15 23:22:30;;;;;;;9.75;5.47;;;25.40;31.70;;;;;;21169644;28;20051;-73
2021/07/15 23:32:32;;;;;;;6.75;3.30;;;25.20;31.90;;;;;;21169339;28;20223;-65
2021/07/15 23:42:35;;;;;;;;;;;25.10;32.40;;;;;;21170048;28;20048;-72
2021/07/15 23:52:37;;;;;;;5.22;2.20;;;25.00;31.90;;;;;;21168251;28;19920;-63
